sensor_id;sensor_type;location;lat;lon;timestamp;P1;durP1;ratioP1;P2;durP2;ratioP2
59442;SDS011;45247;47.466;19.004;2023-07-02T15:12:03;8.55;;;1.85;;
59442;SDS011;45247;47.466;19.004;2023-07-02T15:14:33;3.13;;;1.75;;
59442;SDS011;45247;47.466;19.004;2023-07-02T15:17:01;2.60;;;1.60;;
59442;SDS011;45247;47.466;19.004;2023-07-02T15:19:30;1.88;;;1.48;;
59442;SDS011;45247;47.466;19.004;2023-07-02T15:21:58;3.67;;;1.70;;
59442;SDS011;45247;47.466;19.004;2023-07-02T15:24:26;3.50;;;1.80;;
59442;SDS011;45247;47.466;19.004;2023-07-02T15:26:54;3.80;;;1.70;;
59442;SDS011;45247;47.466;19.004;2023-07-02T15:29:24;4.82;;;1.63;;
59442;SDS011;45247;47.466;19.004;2023-07-02T15:31:52;6.18;;;1.80;;
59442;SDS011;45247;47.466;19.004;2023-07-02T15:34:20;7.40;;;1.98;;
59442;SDS011;45247;47.466;19.004;2023-07-02T15:36:48;2.55;;;1.60;;
59442;SDS011;45247;47.466;19.004;2023-07-02T15:39:20;2.42;;;1.60;;
59442;SDS011;45247;47.466;19.004;2023-07-02T15:41:51;3.97;;;1.63;;
59442;SDS011;45247;47.466;19.004;2023-07-02T15:44:19;10.07;;;2.00;;
59442;SDS011;45247;47.466;19.004;2023-07-02T15:46:48;2.67;;;1.92;;
59442;SDS011;45247;47.466;19.004;2023-07-02T15:49:17;3.47;;;1.80;;
59442;SDS011;45247;47.466;19.004;2023-07-02T15:51:45;6.28;;;1.85;;
59442;SDS011;45247;47.466;19.004;2023-07-02T15:54:13;4.18;;;1.70;;
59442;SDS011;45247;47.466;19.004;2023-07-02T15:56:42;4.93;;;2.28;;
59442;SDS011;45247;47.466;19.004;2023-07-02T15:59:10;2.17;;;1.52;;
59442;SDS011;45247;47.466;19.004;2023-07-02T16:01:38;4.95;;;1.75;;
59442;SDS011;45247;47.466;19.004;2023-07-02T16:04:08;5.93;;;1.90;;
59442;SDS011;45247;47.466;19.004;2023-07-02T16:06:37;5.05;;;1.52;;
59442;SDS011;45247;47.466;19.004;2023-07-02T16:09:06;5.10;;;1.83;;
59442;SDS011;45247;47.466;19.004;2023-07-02T16:11:36;2.25;;;1.52;;
59442;SDS011;45247;47.466;19.004;2023-07-02T16:14:09;6.15;;;1.92;;
59442;SDS011;45247;47.466;19.004;2023-07-02T16:16:38;4.03;;;2.10;;
59442;SDS011;45247;47.466;19.004;2023-07-02T16:19:09;3.38;;;2.38;;
59442;SDS011;45247;47.466;19.004;2023-07-02T16:21:39;5.35;;;2.35;;
59442;SDS011;45247;47.466;19.004;2023-07-02T16:24:08;5.15;;;2.50;;
59442;SDS011;45247;47.466;19.004;2023-07-02T16:26:46;5.25;;;2.20;;
59442;SDS011;45247;47.466;19.004;2023-07-02T16:29:15;4.25;;;2.30;;
59442;SDS011;45247;47.466;19.004;2023-07-02T16:31:46;5.43;;;2.25;;
59442;SDS011;45247;47.466;19.004;2023-07-02T16:34:17;5.20;;;2.30;;
59442;SDS011;45247;47.466;19.004;2023-07-02T16:36:45;16.33;;;2.30;;
59442;SDS011;45247;47.466;19.004;2023-07-02T16:39:14;4.78;;;2.20;;
59442;SDS011;45247;47.466;19.004;2023-07-02T16:41:44;4.15;;;2.22;;
59442;SDS011;45247;47.466;19.004;2023-07-02T16:44:15;2.70;;;1.90;;
59442;SDS011;45247;47.466;19.004;2023-07-02T16:46:44;5.85;;;1.88;;
59442;SDS011;45247;47.466;19.004;2023-07-02T16:49:14;3.40;;;1.83;;
59442;SDS011;45247;47.466;19.004;2023-07-02T16:51:45;5.05;;;1.90;;
59442;SDS011;45247;47.466;19.004;2023-07-02T16:54:14;4.38;;;2.13;;
59442;SDS011;45247;47.466;19.004;2023-07-02T16:56:46;2.40;;;1.75;;
59442;SDS011;45247;47.466;19.004;2023-07-02T16:59:16;3.70;;;1.65;;
59442;SDS011;45247;47.466;19.004;2023-07-02T17:01:49;3.30;;;1.92;;
59442;SDS011;45247;47.466;19.004;2023-07-02T17:04:20;4.00;;;1.70;;
59442;SDS011;45247;47.466;19.004;2023-07-02T17:06:52;3.17;;;1.50;;
59442;SDS011;45247;47.466;19.004;2023-07-02T17:09:23;3.88;;;2.38;;
59442;SDS011;45247;47.466;19.004;2023-07-02T17:11:57;4.10;;;1.75;;
59442;SDS011;45247;47.466;19.004;2023-07-02T17:14:29;2.95;;;1.70;;
59442;SDS011;45247;47.466;19.004;2023-07-02T17:17:03;3.65;;;1.85;;
59442;SDS011;45247;47.466;19.004;2023-07-02T17:19:35;3.63;;;1.85;;
59442;SDS011;45247;47.466;19.004;2023-07-02T17:22:08;2.88;;;1.90;;
59442;SDS011;45247;47.466;19.004;2023-07-02T17:24:39;7.88;;;2.58;;
59442;SDS011;45247;47.466;19.004;2023-07-02T17:27:09;2.27;;;1.60;;
59442;SDS011;45247;47.466;19.004;2023-07-02T17:29:40;7.70;;;2.67;;
59442;SDS011;45247;47.466;19.004;2023-07-02T17:32:12;11.35;;;2.67;;
59442;SDS011;45247;47.466;19.004;2023-07-02T17:34:41;6.45;;;2.05;;
59442;SDS011;45247;47.466;19.004;2023-07-02T17:37:12;2.58;;;2.00;;
59442;SDS011;45247;47.466;19.004;2023-07-02T17:39:44;3.35;;;2.08;;
59442;SDS011;45247;47.466;19.004;2023-07-02T17:42:13;3.28;;;2.30;;
59442;SDS011;45247;47.466;19.004;2023-07-02T17:44:43;14.10;;;2.70;;
59442;SDS011;45247;47.466;19.004;2023-07-02T17:47:14;8.73;;;2.42;;
59442;SDS011;45247;47.466;19.004;2023-07-02T17:49:45;5.85;;;2.05;;
59442;SDS011;45247;47.466;19.004;2023-07-02T17:52:19;3.50;;;1.70;;
59442;SDS011;45247;47.466;19.004;2023-07-02T17:54:49;2.53;;;1.90;;
59442;SDS011;45247;47.466;19.004;2023-07-02T17:59:51;2.75;;;1.70;;
59442;SDS011;45247;47.466;19.004;2023-07-02T18:02:22;5.55;;;2.22;;
59442;SDS011;45247;47.466;19.004;2023-07-02T18:04:51;4.60;;;1.83;;
59442;SDS011;45247;47.466;19.004;2023-07-02T18:07:23;3.42;;;1.80;;
59442;SDS011;45247;47.466;19.004;2023-07-02T18:09:53;3.97;;;1.85;;
59442;SDS011;45247;47.466;19.004;2023-07-02T18:12:24;3.25;;;1.98;;
59442;SDS011;45247;47.466;19.004;2023-07-02T18:14:54;3.35;;;1.67;;
59442;SDS011;45247;47.466;19.004;2023-07-02T18:17:26;2.25;;;1.48;;
59442;SDS011;45247;47.466;19.004;2023-07-02T18:19:54;4.07;;;1.63;;
59442;SDS011;45247;47.466;19.004;2023-07-02T18:22:25;5.22;;;1.60;;
59442;SDS011;45247;47.466;19.004;2023-07-02T18:24:54;2.95;;;1.60;;
59442;SDS011;45247;47.466;19.004;2023-07-02T18:27:25;8.90;;;2.10;;
59442;SDS011;45247;47.466;19.004;2023-07-02T18:29:54;2.22;;;1.42;;
59442;SDS011;45247;47.466;19.004;2023-07-02T18:32:24;3.30;;;1.63;;
59442;SDS011;45247;47.466;19.004;2023-07-02T18:37:28;2.67;;;1.55;;
59442;SDS011;45247;47.466;19.004;2023-07-02T18:40:00;2.42;;;1.60;;
59442;SDS011;45247;47.466;19.004;2023-07-02T18:42:31;5.53;;;1.33;;
59442;SDS011;45247;47.466;19.004;2023-07-02T18:45:00;2.75;;;1.52;;
59442;SDS011;45247;47.466;19.004;2023-07-02T18:47:29;3.55;;;1.50;;
59442;SDS011;45247;47.466;19.004;2023-07-02T18:49:59;6.78;;;1.60;;
59442;SDS011;45247;47.466;19.004;2023-07-02T18:52:29;3.33;;;1.60;;
59442;SDS011;45247;47.466;19.004;2023-07-02T18:54:57;3.70;;;1.60;;
59442;SDS011;45247;47.466;19.004;2023-07-02T18:57:27;5.22;;;1.67;;
59442;SDS011;45247;47.466;19.004;2023-07-02T18:59:56;5.03;;;1.70;;
59442;SDS011;45247;47.466;19.004;2023-07-02T19:02:26;2.15;;;1.40;;
59442;SDS011;45247;47.466;19.004;2023-07-02T19:04:56;3.10;;;1.63;;
59442;SDS011;45247;47.466;19.004;2023-07-02T19:07:26;3.47;;;1.50;;
59442;SDS011;45247;47.466;19.004;2023-07-02T19:09:57;3.38;;;1.70;;
59442;SDS011;45247;47.466;19.004;2023-07-02T19:12:27;2.85;;;1.55;;
59442;SDS011;45247;47.466;19.004;2023-07-02T19:14:57;3.88;;;1.75;;
59442;SDS011;45247;47.466;19.004;2023-07-02T19:17:30;4.70;;;1.73;;
59442;SDS011;45247;47.466;19.004;2023-07-02T19:19:59;3.97;;;1.92;;
59442;SDS011;45247;47.466;19.004;2023-07-02T19:22:29;3.17;;;1.90;;
59442;SDS011;45247;47.466;19.004;2023-07-02T19:25:01;4.43;;;1.80;;
59442;SDS011;45247;47.466;19.004;2023-07-02T19:27:30;3.50;;;1.58;;
59442;SDS011;45247;47.466;19.004;2023-07-02T19:29:59;3.65;;;1.75;;
59442;SDS011;45247;47.466;19.004;2023-07-02T19:32:27;6.60;;;2.10;;
59442;SDS011;45247;47.466;19.004;2023-07-02T19:34:59;4.88;;;2.03;;
59442;SDS011;45247;47.466;19.004;2023-07-02T19:37:28;3.95;;;1.70;;
59442;SDS011;45247;47.466;19.004;2023-07-02T19:39:58;5.43;;;2.15;;
59442;SDS011;45247;47.466;19.004;2023-07-02T19:42:30;4.97;;;1.90;;
59442;SDS011;45247;47.466;19.004;2023-07-02T19:44:59;4.55;;;1.75;;
59442;SDS011;45247;47.466;19.004;2023-07-02T19:47:29;2.65;;;1.75;;
59442;SDS011;45247;47.466;19.004;2023-07-02T19:49:58;5.95;;;1.90;;
59442;SDS011;45247;47.466;19.004;2023-07-02T19:52:28;3.55;;;2.05;;
59442;SDS011;45247;47.466;19.004;2023-07-02T19:54:59;7.90;;;2.38;;
59442;SDS011;45247;47.466;19.004;2023-07-02T19:57:33;4.13;;;1.80;;
59442;SDS011;45247;47.466;19.004;2023-07-02T20:00:02;7.20;;;2.30;;
59442;SDS011;45247;47.466;19.004;2023-07-02T20:02:35;4.22;;;2.13;;
59442;SDS011;45247;47.466;19.004;2023-07-02T20:05:05;3.03;;;2.00;;
59442;SDS011;45247;47.466;19.004;2023-07-02T20:07:35;6.65;;;2.35;;
59442;SDS011;45247;47.466;19.004;2023-07-02T20:10:05;5.95;;;2.47;;
59442;SDS011;45247;47.466;19.004;2023-07-02T20:12:37;6.28;;;2.20;;
59442;SDS011;45247;47.466;19.004;2023-07-02T20:15:07;4.90;;;2.00;;
59442;SDS011;45247;47.466;19.004;2023-07-02T20:17:37;3.92;;;2.08;;
59442;SDS011;45247;47.466;19.004;2023-07-02T20:20:07;7.72;;;2.58;;
59442;SDS011;45247;47.466;19.004;2023-07-02T20:22:44;4.88;;;2.47;;
59442;SDS011;45247;47.466;19.004;2023-07-02T20:25:14;4.53;;;2.45;;
59442;SDS011;45247;47.466;19.004;2023-07-02T20:28:05;4.85;;;2.40;;
59442;SDS011;45247;47.466;19.004;2023-07-02T20:30:34;6.05;;;2.47;;
59442;SDS011;45247;47.466;19.004;2023-07-02T20:33:04;5.10;;;2.22;;
59442;SDS011;45247;47.466;19.004;2023-07-02T20:35:37;7.47;;;3.20;;
59442;SDS011;45247;47.466;19.004;2023-07-02T20:38:07;7.07;;;2.40;;
59442;SDS011;45247;47.466;19.004;2023-07-02T20:40:39;6.32;;;2.17;;
59442;SDS011;45247;47.466;19.004;2023-07-02T20:43:10;4.43;;;2.92;;
59442;SDS011;45247;47.466;19.004;2023-07-02T20:45:41;4.63;;;2.28;;
59442;SDS011;45247;47.466;19.004;2023-07-02T20:48:10;6.22;;;2.70;;
59442;SDS011;45247;47.466;19.004;2023-07-02T20:50:40;7.03;;;2.75;;
59442;SDS011;45247;47.466;19.004;2023-07-02T20:53:10;3.13;;;2.45;;
59442;SDS011;45247;47.466;19.004;2023-07-02T20:55:38;4.70;;;2.50;;
59442;SDS011;45247;47.466;19.004;2023-07-02T20:58:07;12.43;;;2.47;;
59442;SDS011;45247;47.466;19.004;2023-07-02T21:00:36;7.22;;;2.65;;
59442;SDS011;45247;47.466;19.004;2023-07-02T21:03:22;4.13;;;2.35;;
59442;SDS011;45247;47.466;19.004;2023-07-02T21:05:51;4.75;;;2.20;;
59442;SDS011;45247;47.466;19.004;2023-07-02T21:08:20;10.02;;;2.80;;
59442;SDS011;45247;47.466;19.004;2023-07-02T21:10:49;4.75;;;2.75;;
59442;SDS011;45247;47.466;19.004;2023-07-02T21:13:17;4.30;;;2.75;;
59442;SDS011;45247;47.466;19.004;2023-07-02T21:15:53;4.35;;;2.85;;
59442;SDS011;45247;47.466;19.004;2023-07-02T21:18:22;4.13;;;2.65;;
59442;SDS011;45247;47.466;19.004;2023-07-02T21:20:50;5.47;;;2.50;;
59442;SDS011;45247;47.466;19.004;2023-07-02T21:23:19;6.97;;;2.78;;
59442;SDS011;45247;47.466;19.004;2023-07-02T21:25:53;5.38;;;2.88;;
59442;SDS011;45247;47.466;19.004;2023-07-02T21:28:22;5.25;;;2.70;;
59442;SDS011;45247;47.466;19.004;2023-07-02T21:30:50;5.22;;;2.97;;
59442;SDS011;45247;47.466;19.004;2023-07-02T21:33:20;7.97;;;2.63;;
59442;SDS011;45247;47.466;19.004;2023-07-02T21:35:49;6.97;;;3.00;;
59442;SDS011;45247;47.466;19.004;2023-07-02T21:38:17;5.60;;;2.95;;
59442;SDS011;45247;47.466;19.004;2023-07-02T21:40:46;7.60;;;3.13;;
59442;SDS011;45247;47.466;19.004;2023-07-02T21:43:14;7.10;;;3.13;;
59442;SDS011;45247;47.466;19.004;2023-07-02T21:45:42;7.97;;;3.40;;
59442;SDS011;45247;47.466;19.004;2023-07-02T21:48:11;4.50;;;2.72;;
59442;SDS011;45247;47.466;19.004;2023-07-02T21:50:40;6.78;;;3.13;;
59442;SDS011;45247;47.466;19.004;2023-07-02T21:53:08;6.53;;;2.70;;
59442;SDS011;45247;47.466;19.004;2023-07-02T21:55:36;6.57;;;3.65;;
59442;SDS011;45247;47.466;19.004;2023-07-02T21:58:05;6.53;;;3.15;;
59442;SDS011;45247;47.466;19.004;2023-07-02T22:00:33;9.77;;;3.47;;
59442;SDS011;45247;47.466;19.004;2023-07-02T22:03:02;6.45;;;3.67;;
59442;SDS011;45247;47.466;19.004;2023-07-02T22:05:30;5.18;;;2.88;;
59442;SDS011;45247;47.466;19.004;2023-07-02T22:08:05;11.10;;;3.50;;
59442;SDS011;45247;47.466;19.004;2023-07-02T22:10:34;8.52;;;4.03;;
59442;SDS011;45247;47.466;19.004;2023-07-02T22:13:03;9.40;;;3.63;;
59442;SDS011;45247;47.466;19.004;2023-07-02T22:15:32;7.38;;;3.50;;
59442;SDS011;45247;47.466;19.004;2023-07-02T22:18:01;9.02;;;3.53;;
59442;SDS011;45247;47.466;19.004;2023-07-02T22:20:30;8.10;;;3.72;;
59442;SDS011;45247;47.466;19.004;2023-07-02T22:22:59;9.73;;;3.60;;
59442;SDS011;45247;47.466;19.004;2023-07-02T22:25:29;7.00;;;3.50;;
59442;SDS011;45247;47.466;19.004;2023-07-02T22:27:58;6.25;;;3.50;;
59442;SDS011;45247;47.466;19.004;2023-07-02T22:30:27;6.28;;;4.07;;
59442;SDS011;45247;47.466;19.004;2023-07-02T22:32:55;6.75;;;3.40;;
59442;SDS011;45247;47.466;19.004;2023-07-02T22:35:23;6.43;;;3.60;;
59442;SDS011;45247;47.466;19.004;2023-07-02T22:37:52;8.00;;;3.80;;
59442;SDS011;45247;47.466;19.004;2023-07-02T22:40:21;7.30;;;3.67;;
59442;SDS011;45247;47.466;19.004;2023-07-02T22:42:52;5.45;;;3.60;;
59442;SDS011;45247;47.466;19.004;2023-07-02T22:45:21;5.53;;;3.47;;
59442;SDS011;45247;47.466;19.004;2023-07-02T22:47:50;5.53;;;3.85;;
59442;SDS011;45247;47.466;19.004;2023-07-02T22:50:18;9.50;;;3.53;;
59442;SDS011;45247;47.466;19.004;2023-07-02T22:52:48;6.88;;;3.75;;
59442;SDS011;45247;47.466;19.004;2023-07-02T22:55:17;5.32;;;3.40;;
59442;SDS011;45247;47.466;19.004;2023-07-02T22:57:45;9.02;;;4.15;;
59442;SDS011;45247;47.466;19.004;2023-07-02T23:00:15;8.35;;;3.85;;
59442;SDS011;45247;47.466;19.004;2023-07-02T23:02:46;6.72;;;3.65;;
59442;SDS011;45247;47.466;19.004;2023-07-02T23:05:15;7.22;;;3.95;;
59442;SDS011;45247;47.466;19.004;2023-07-02T23:07:44;8.02;;;3.95;;
59442;SDS011;45247;47.466;19.004;2023-07-02T23:10:13;8.05;;;3.85;;
59442;SDS011;45247;47.466;19.004;2023-07-02T23:12:43;5.95;;;3.75;;
59442;SDS011;45247;47.466;19.004;2023-07-02T23:15:15;6.80;;;3.90;;
59442;SDS011;45247;47.466;19.004;2023-07-02T23:17:46;6.37;;;3.73;;
59442;SDS011;45247;47.466;19.004;2023-07-02T23:20:15;8.63;;;4.20;;
59442;SDS011;45247;47.466;19.004;2023-07-02T23:22:46;10.88;;;4.43;;
59442;SDS011;45247;47.466;19.004;2023-07-02T23:25:17;7.67;;;3.23;;
59442;SDS011;45247;47.466;19.004;2023-07-02T23:27:50;6.43;;;4.03;;
59442;SDS011;45247;47.466;19.004;2023-07-02T23:30:22;6.95;;;3.97;;
59442;SDS011;45247;47.466;19.004;2023-07-02T23:32:53;7.97;;;3.97;;
59442;SDS011;45247;47.466;19.004;2023-07-02T23:35:22;9.68;;;4.50;;
59442;SDS011;45247;47.466;19.004;2023-07-02T23:37:50;5.95;;;4.05;;
59442;SDS011;45247;47.466;19.004;2023-07-02T23:40:23;7.13;;;4.10;;
59442;SDS011;45247;47.466;19.004;2023-07-02T23:42:51;6.78;;;4.10;;
59442;SDS011;45247;47.466;19.004;2023-07-02T23:45:20;6.65;;;4.15;;
59442;SDS011;45247;47.466;19.004;2023-07-02T23:47:50;10.82;;;4.60;;
59442;SDS011;45247;47.466;19.004;2023-07-02T23:50:18;7.32;;;4.00;;
59442;SDS011;45247;47.466;19.004;2023-07-02T23:52:46;10.18;;;4.05;;
59442;SDS011;45247;47.466;19.004;2023-07-02T23:55:15;9.20;;;4.00;;
59442;SDS011;45247;47.466;19.004;2023-07-02T23:57:45;6.70;;;4.05;;
